ADDS METAR Data INFO
IDs: Format: Raw Decoded Include TAF

Data at: 0317 UTC 20 Jul 2018

KBHB 200256Z AUTO 19004KT 10SM CLR 15/12 A3011 RMK AO2 SLP200 T01500122 51017 $
KBHB 200156Z AUTO 18003KT 10SM CLR 16/12 A3011 RMK AO2 SLP198 T01610117 $
KBHB 200056Z AUTO 20005KT 10SM CLR 17/12 A3009 RMK AO2 SLP191 T01720117 $
KBHB 192356Z AUTO 21004KT 10SM FEW002 19/11 A3006 RMK AO2 SLP183 T01940111 10256 20194 402560094 53008 $
KBHB 192336Z AUTO 22005KT 10SM SCT002 19/12 A3006 RMK AO2 $
KBHB 192256Z AUTO 22005KT 10SM CLR 22/09 A3005 RMK AO2 SLP179 T02170094 $
KBHB 192218Z AUTO 22009KT 10SM SCT002 22/10 A3004 RMK AO2 $
KBHB 192156Z AUTO 21009KT 10SM CLR 22/12 A3004 RMK AO2 SLP175 T02220117 $
KBHB 192056Z AUTO 21011G15KT 10SM CLR 22/12 A3004 RMK AO2 SLP175 T02220117 58001 $
KBHB 191956Z AUTO 21011KT 10SM CLR 22/12 A3004 RMK AO2 SLP177 T02220117 $
KBHB 191856Z AUTO 23007KT 10SM CLR 25/10 A3004 RMK AO2 SLP176 T02500100 $
KBHB 191756Z AUTO 29007KT 250V310 10SM CLR 25/09 A3004 RMK AO2 SLP175 T02500089 10250 20178 58006 $
KBHB 191656Z AUTO VRB05KT 10SM CLR 24/09 A3004 RMK AO2 SLP177 T02440089 $
KBHB 191556Z AUTO VRB03KT 10SM CLR 23/08 A3005 RMK AO2 SLP179 T02330078 $
KBHB 191456Z AUTO VRB06G16KT 10SM CLR 23/09 A3006 RMK AO2 SLP181 T02280094 53005 $
KBHB 191356Z AUTO 06005KT 10SM CLR 22/09 A3005 RMK AO2 SLP179 T02170094 $
KBHB 191256Z AUTO 03004KT 10SM CLR 20/11 A3004 RMK AO2 SLP177 T02000111 $
KBHB 191156Z AUTO 03005KT 10SM CLR 18/12 A3004 RMK AO2 SLP176 T01780122 10178 20094 51013 $
KBHB 191056Z AUTO 03004KT 10SM CLR 14/12 A3003 RMK AO2 SLP174 T01390117 $
KBHB 190956Z AUTO 00000KT 10SM CLR 12/10 A3002 RMK AO2 SLP171 T01170100 $
KBHB 190856Z AUTO 00000KT 10SM CLR 12/10 A3000 RMK AO2 SLP163 T01170100 53014 $
KBHB 190756Z AUTO 34003KT 10SM CLR 13/11 A2998 RMK AO2 SLP157 T01280106 $
KBHB 190656Z AUTO 35003KT 10SM CLR 14/10 A2997 RMK AO2 SLP153 T01390100 $
KBHB 190556Z AUTO 36003KT 10SM CLR 14/11 A2996 RMK AO2 SLP150 T01440106 10211 20144 52009 $
KBHB 190456Z AUTO 34003KT 10SM CLR 16/10 A2995 RMK AO2 SLP147 T01560100 $
KBHB 190356Z AUTO VRB03KT 10SM CLR 16/10 A2995 RMK AO2 SLP144 T01610100 $
KBHB 190256Z AUTO 34003KT 10SM CLR 17/11 A2994 RMK AO2 SLP140 T01720106 51018 $
KBHB 190156Z AUTO 32003KT 10SM CLR 17/12 A2993 RMK AO2 SLP137 T01720117 $
KBHB 190056Z AUTO 34003KT 10SM CLR 19/12 A2991 RMK AO2 SLP131 T01940122 $
KBHB 182356Z AUTO 32005KT 10SM CLR 21/11 A2988 RMK AO2 SLP122 T02110111 10256 20211 402560172 53018 $
KBHB 182256Z AUTO 32008KT 10SM CLR 23/12 A2986 RMK AO2 SLP115 T02330117 $
KBHB 182156Z AUTO 34007KT 310V010 10SM CLR 24/14 A2984 RMK AO2 SLP108 T02440139 $
KBHB 182056Z AUTO 31006KT 10SM CLR 24/14 A2983 RMK AO2 SLP104 T02440139 51007 $
KBHB 181956Z AUTO 34007KT 10SM FEW046 24/14 A2982 RMK AO2 SLP102 T02440139 $
KBHB 181856Z AUTO 35006G16KT 10SM BKN045 24/15 A2982 RMK AO2 SLP099 T02390150 $
KBHB 181656Z AUTO VRB06KT 10SM FEW033 SCT041 24/17 A2980 RMK AO2 SLP095 T02390167 $
KBHB 181643Z AUTO VRB06KT 10SM SCT031 24/17 A2980 RMK AO2 $
KBHB 181556Z AUTO 35007G14KT 10SM BKN027 23/17 A2981 RMK AO2 SLP096 T02280167 $
KBHB 181554Z AUTO 35008G14KT 10SM BKN027 23/17 A2981 RMK AO2 $
KBHB 181537Z AUTO 01008KT 10SM SCT025 23/17 A2981 RMK AO2 $